Time;durP1;ratioP1;P1;durP2;ratioP2;P2;SDS_P1;SDS_P2;PMS_P1;PMS_P2;Temp;Humidity;BMP_temperature;BMP_pressure;BME280_temperature;BME280_humidity;BME280_pressure;Samples;Min_cycle;Max_cycle;Signal;HPM_P1;HPM_P2
2022/11/02 04:01:07;;;;;;;1.13;0.90;;;19.90;54.10;;;;;;5632526;23;45765;-60
2022/11/02 04:03:33;;;;;;;1.08;0.90;;;19.80;54.10;;;;;;4910121;28;45435;-60
2022/11/02 04:05:58;;;;;;;1.08;0.98;;;19.90;54.20;;;;;;4914670;28;45645;-59
2022/11/02 04:08:30;;;;;;;1.98;0.90;;;19.90;54.20;;;;;;4935829;28;44760;-60
2022/11/02 04:16:24;;;;;;;1.05;0.95;;;19.80;54.20;;;;;;4909115;28;45191;-59
2022/11/02 04:21:33;;;;;;;0.98;0.90;;;19.80;54.10;;;;;;4910571;28;47756;-59
2022/11/02 04:26:43;;;;;;;1.45;0.95;;;19.80;54.10;;;;;;4914738;28;45090;-60
2022/11/02 04:29:09;;;;;;;1.00;0.90;;;19.80;54.10;;;;;;4910522;28;45277;-59
2022/11/02 04:31:34;;;;;;;1.35;1.25;;;19.80;54.10;;;;;;4912546;28;45537;-59
2022/11/02 04:34:00;;;;;;;0.98;0.90;;;19.80;54.10;;;;;;4914373;28;44971;-59
2022/11/02 04:36:28;;;;;;;1.23;1.13;;;19.80;54.10;;;;;;4912750;28;45299;-60
2022/11/02 04:38:53;;;;;;;1.85;0.90;;;19.80;54.10;;;;;;4899047;28;45112;-58
2022/11/02 04:44:05;;;;;;;1.15;0.95;;;19.80;54.10;;;;;;4918118;28;46636;-59
2022/11/02 04:46:32;;;;;;;1.17;0.90;;;19.80;54.10;;;;;;4901324;28;45272;-59
2022/11/02 04:48:57;;;;;;;0.90;0.80;;;19.80;54.20;;;;;;4909945;28;45453;-58
2022/11/02 04:51:24;;;;;;;0.93;0.82;;;19.80;54.20;;;;;;4914681;28;46643;-59
2022/11/02 04:53:50;;;;;;;1.58;1.20;;;19.80;54.60;;;;;;4915928;28;45458;-60
2022/11/02 04:56:15;;;;;;;0.98;0.90;;;19.80;54.10;;;;;;4915463;28;45504;-59
2022/11/02 04:58:41;;;;;;;0.90;0.80;;;19.80;54.20;;;;;;4916362;28;45117;-59
2022/11/02 05:01:08;;;;;;;1.10;1.00;;;19.70;54.10;;;;;;4895179;28;45390;-59
2022/11/02 05:03:34;;;;;;;1.20;1.02;;;19.80;54.10;;;;;;4916316;28;45296;-58
2022/11/02 05:06:00;;;;;;;1.67;1.20;;;19.70;54.10;;;;;;4915560;28;45414;-59
2022/11/02 05:08:25;;;;;;;0.98;0.93;;;19.70;54.10;;;;;;4912766;28;45301;-59
2022/11/02 05:10:55;;;;;;;1.88;1.15;;;19.80;54.10;;;;;;4923265;28;45695;-57
2022/11/02 05:13:21;;;;;;;1.13;1.02;;;19.80;54.10;;;;;;4914593;28;45186;-59
2022/11/02 05:15:46;;;;;;;1.02;0.93;;;19.80;54.10;;;;;;4910701;28;45091;-59
2022/11/02 05:18:12;;;;;;;1.00;0.90;;;19.80;54.10;;;;;;4929029;28;45431;-59
2022/11/02 05:20:38;;;;;;;0.90;0.90;;;19.80;54.10;;;;;;4912442;28;46125;-60
2022/11/02 05:23:05;;;;;;;1.17;0.93;;;19.80;54.10;;;;;;4915276;28;45389;-60
2022/11/02 05:25:30;;;;;;;0.90;0.90;;;19.80;54.10;;;;;;4911427;28;45237;-60
2022/11/02 05:27:56;;;;;;;1.00;0.90;;;19.80;54.10;;;;;;4913392;28;45489;-59
2022/11/02 05:30:22;;;;;;;0.75;0.65;;;19.70;54.00;;;;;;4907069;28;45333;-59
2022/11/02 05:32:47;;;;;;;1.00;0.90;;;19.70;54.10;;;;;;4914184;28;45012;-59
2022/11/02 05:35:13;;;;;;;0.88;0.88;;;19.70;54.00;;;;;;4912423;28;45714;-59
2022/11/02 05:37:39;;;;;;;1.00;0.90;;;19.70;54.00;;;;;;4896614;28;45329;-59
2022/11/02 05:40:05;;;;;;;1.45;1.25;;;19.70;54.10;;;;;;4923421;28;45489;-59
2022/11/02 05:42:31;;;;;;;0.95;0.70;;;19.70;54.10;;;;;;4911171;28;45263;-57
2022/11/02 05:44:56;;;;;;;0.80;0.80;;;19.70;54.10;;;;;;4912575;28;45412;-58
2022/11/02 05:47:22;;;;;;;0.80;0.80;;;19.70;54.00;;;;;;4912390;28;45496;-59
2022/11/02 05:49:47;;;;;;;1.00;0.85;;;19.70;54.00;;;;;;4913187;28;45072;-57
2022/11/02 05:52:13;;;;;;;1.20;1.10;;;19.70;54.00;;;;;;4911897;28;45538;-59
2022/11/02 05:54:39;;;;;;;0.80;0.80;;;19.70;54.00;;;;;;4912693;28;45412;-59
2022/11/02 05:57:04;;;;;;;0.95;0.75;;;19.70;54.00;;;;;;4921923;28;45560;-58
2022/11/02 05:59:30;;;;;;;0.90;0.90;;;19.70;54.10;;;;;;4920835;28;46482;-59
2022/11/02 06:01:55;;;;;;;0.80;0.80;;;19.70;54.10;;;;;;4918805;28;45398;-58
2022/11/02 06:04:21;;;;;;;1.05;0.93;;;19.70;54.10;;;;;;4919998;28;45527;-59
2022/11/02 06:06:46;;;;;;;0.80;0.80;;;19.70;54.00;;;;;;4916355;28;44918;-58
2022/11/02 06:09:12;;;;;;;0.80;0.80;;;19.70;54.10;;;;;;4911008;28;46807;-59
2022/11/02 06:11:37;;;;;;;1.15;1.02;;;19.70;54.00;;;;;;4918813;28;45270;-59
2022/11/02 06:14:03;;;;;;;1.00;0.90;;;19.70;54.10;;;;;;4909861;28;45576;-59
2022/11/02 06:16:29;;;;;;;1.30;1.15;;;19.70;54.10;;;;;;4913679;28;45490;-59
2022/11/02 06:18:55;;;;;;;0.88;0.88;;;19.70;54.00;;;;;;4918669;28;45957;-59
2022/11/02 06:21:20;;;;;;;1.00;0.90;;;19.70;54.00;;;;;;4914384;28;45575;-59
2022/11/02 06:23:47;;;;;;;1.00;0.90;;;19.70;54.10;;;;;;4915553;28;45334;-59
2022/11/02 06:26:13;;;;;;;1.00;0.90;;;19.70;54.00;;;;;;4912686;28;44990;-60
2022/11/02 06:28:38;;;;;;;0.68;0.68;;;19.70;54.00;;;;;;4908153;28;47153;-59
2022/11/02 06:31:04;;;;;;;0.90;0.90;;;19.70;54.00;;;;;;4909486;28;45305;-59
2022/11/02 06:33:29;;;;;;;0.80;0.80;;;19.70;54.00;;;;;;4916152;28;45236;-59
2022/11/02 06:35:55;;;;;;;0.75;0.75;;;19.70;54.00;;;;;;4909862;28;44981;-59
2022/11/02 06:38:21;;;;;;;0.95;0.85;;;19.70;54.00;;;;;;4888155;28;45267;-58
2022/11/02 06:40:56;;;;;;;1.25;1.00;;;19.70;54.00;;;;;;4911934;28;44687;-59
2022/11/02 06:43:22;;;;;;;0.85;0.77;;;19.70;54.00;;;;;;4908147;28;45452;-59
2022/11/02 06:45:47;;;;;;;1.20;1.00;;;19.70;54.00;;;;;;4911829;28;45196;-58
2022/11/02 06:48:13;;;;;;;1.13;0.90;;;19.60;54.00;;;;;;4915988;28;45551;-59
2022/11/02 06:50:39;;;;;;;1.60;1.08;;;19.60;54.00;;;;;;4917104;28;45533;-60
2022/11/02 06:53:04;;;;;;;0.70;0.70;;;19.60;54.00;;;;;;4910277;28;45206;-58
2022/11/02 06:55:30;;;;;;;0.80;0.77;;;19.70;54.00;;;;;;4915380;28;45156;-60
2022/11/02 06:57:55;;;;;;;1.02;0.90;;;19.60;54.00;;;;;;4912636;28;45538;-60
2022/11/02 07:00:21;;;;;;;2.80;1.13;;;19.70;54.10;;;;;;4910504;28;45128;-61
2022/11/02 07:03:04;;;;;;;1.15;0.90;;;19.70;54.00;;;;;;4917629;28;45986;-61
2022/11/02 07:05:30;;;;;;;0.80;0.80;;;19.70;54.50;;;;;;4923849;28;45533;-58
2022/11/02 07:07:56;;;;;;;1.00;0.90;;;19.70;53.90;;;;;;4896175;28;46231;-61
2022/11/02 07:10:21;;;;;;;0.70;0.70;;;19.70;53.90;;;;;;4914140;28;45459;-61
2022/11/02 07:12:47;;;;;;;0.70;0.70;;;19.80;53.90;;;;;;4928768;28;45431;-62
2022/11/02 07:15:12;;;;;;;0.80;0.80;;;19.80;53.80;;;;;;4906851;28;45012;-61
2022/11/02 07:17:39;;;;;;;0.95;0.90;;;19.90;53.60;;;;;;4925520;28;46716;-62
2022/11/02 07:20:05;;;;;;;1.38;0.80;;;20.10;53.50;;;;;;4908888;28;44717;-59
2022/11/02 07:22:30;;;;;;;0.90;0.90;;;20.30;53.20;;;;;;4913572;28;45377;-60
2022/11/02 07:24:56;;;;;;;0.60;0.60;;;20.50;53.00;;;;;;4916184;28;45698;-60
2022/11/02 07:27:21;;;;;;;0.70;0.70;;;20.60;52.70;;;;;;4912691;28;45523;-59
2022/11/02 07:29:47;;;;;;;0.80;0.80;;;20.80;52.50;;;;;;4913680;28;45213;-60
2022/11/02 07:32:12;;;;;;;0.88;0.88;;;20.90;52.30;;;;;;4913023;28;44947;-60
2022/11/02 07:34:38;;;;;;;0.77;0.77;;;21.10;52.20;;;;;;4915037;28;45035;-60
2022/11/02 07:37:04;;;;;;;0.80;0.80;;;21.30;52.10;;;;;;4914556;28;47210;-62
2022/11/02 07:39:29;;;;;;;0.70;0.70;;;21.40;51.90;;;;;;4912355;28;45355;-61
2022/11/02 07:41:55;;;;;;;0.63;0.55;;;21.50;51.80;;;;;;4911193;28;45245;-61
2022/11/02 07:44:20;;;;;;;1.27;0.93;;;21.70;51.70;;;;;;4912926;28;45244;-61
2022/11/02 07:46:46;;;;;;;1.05;0.95;;;21.80;51.60;;;;;;4915433;28;45382;-61
2022/11/02 07:49:11;;;;;;;0.80;0.77;;;21.90;51.40;;;;;;4909101;28;45153;-61
2022/11/02 07:51:37;;;;;;;0.63;0.60;;;22.00;51.30;;;;;;4909225;28;45737;-60
2022/11/02 07:54:03;;;;;;;0.63;0.63;;;22.20;51.20;;;;;;4909662;28;45457;-61
2022/11/02 07:56:28;;;;;;;0.50;0.50;;;22.20;51.00;;;;;;4914692;28;46317;-60
2022/11/02 07:58:54;;;;;;;0.70;0.70;;;22.30;50.90;;;;;;4914679;28;44685;-60
2022/11/02 08:01:19;;;;;;;0.73;0.68;;;22.50;50.80;;;;;;4912736;28;45581;-60
2022/11/02 08:03:45;;;;;;;0.82;0.68;;;22.50;50.70;;;;;;4899558;28;45286;-61
2022/11/02 08:06:12;;;;;;;5.25;0.80;;;22.60;50.60;;;;;;4924498;28;46374;-61
2022/11/02 08:08:37;;;;;;;0.60;0.60;;;22.70;50.60;;;;;;4916127;28;45447;-60
2022/11/02 08:11:06;;;;;;;0.50;0.50;;;22.80;50.50;;;;;;4912776;28;45494;-61
2022/11/02 08:13:32;;;;;;;0.90;0.75;;;22.90;51.00;;;;;;4892645;28;45342;-61
2022/11/02 08:15:58;;;;;;;2.97;0.63;;;23.00;50.30;;;;;;4909536;28;47102;-61
2022/11/02 08:18:24;;;;;;;0.75;0.55;;;23.10;50.30;;;;;;4907416;28;45428;-61
2022/11/02 08:20:50;;;;;;;0.70;0.70;;;23.20;50.20;;;;;;4913786;28;45273;-61
2022/11/02 08:23:17;;;;;;;1.08;0.70;;;23.30;50.10;;;;;;4913581;28;45375;-61
2022/11/02 08:25:44;;;;;;;0.80;0.60;;;23.30;50.00;;;;;;4907758;28;45545;-61
2022/11/02 08:28:24;;;;;;;0.88;0.60;;;23.40;49.90;;;;;;4911721;28;44662;-61
2022/11/02 08:30:50;;;;;;;0.50;0.50;;;23.50;49.50;;;;;;4910191;28;45074;-61
2022/11/02 08:33:17;;;;;;;0.50;0.50;;;23.60;49.90;;;;;;4900179;28;45171;-61
2022/11/02 08:35:43;;;;;;;0.57;0.57;;;23.60;49.70;;;;;;4898423;28;46843;-61
2022/11/02 08:38:09;;;;;;;0.82;0.63;;;23.80;49.70;;;;;;4896445;28;45346;-61
2022/11/02 08:40:34;;;;;;;1.23;0.65;;;23.80;49.60;;;;;;4915232;28;45372;-60
2022/11/02 08:43:05;;;;;;;0.90;0.82;;;23.90;49.50;;;;;;4896957;28;45396;-61
2022/11/02 08:45:31;;;;;;;1.35;0.50;;;23.90;49.30;;;;;;4913114;28;45589;-61
2022/11/02 08:47:57;;;;;;;0.75;0.75;;;23.90;49.40;;;;;;4914989;28;44747;-61
2022/11/02 08:50:22;;;;;;;0.50;0.50;;;24.00;49.30;;;;;;4891836;28;45562;-62
2022/11/02 08:52:48;;;;;;;0.70;0.60;;;24.00;49.30;;;;;;4928735;28;45824;-61
2022/11/02 08:55:13;;;;;;;0.60;0.60;;;24.10;49.30;;;;;;4915012;28;46438;-61
2022/11/02 08:57:46;;;;;;;0.47;0.45;;;24.10;49.20;;;;;;4915004;28;45244;-61
2022/11/02 09:00:12;;;;;;;0.85;0.60;;;24.10;49.00;;;;;;4912195;28;45458;-60
2022/11/02 09:02:38;;;;;;;0.88;0.68;;;24.20;49.10;;;;;;4898582;28;45308;-61
2022/11/02 09:05:04;;;;;;;0.47;0.47;;;24.30;49.10;;;;;;4912888;28;45343;-61
2022/11/02 09:07:30;;;;;;;0.45;0.45;;;24.30;49.00;;;;;;4909383;28;45162;-61
2022/11/02 09:09:55;;;;;;;0.57;0.57;;;24.40;49.00;;;;;;4902357;28;45233;-61
2022/11/02 09:12:21;;;;;;;1.20;0.60;;;24.40;48.90;;;;;;4913381;28;45334;-61
2022/11/02 09:14:46;;;;;;;0.60;0.50;;;24.40;48.80;;;;;;4912329;28;45460;-60
2022/11/02 09:17:12;;;;;;;0.40;0.40;;;24.40;48.70;;;;;;4916289;28;45053;-60
2022/11/02 09:19:38;;;;;;;0.82;0.50;;;24.50;48.80;;;;;;4915332;28;45439;-61
2022/11/02 09:22:03;;;;;;;0.60;0.57;;;24.50;48.80;;;;;;4915412;28;44687;-61
2022/11/02 09:24:29;;;;;;;0.50;0.50;;;24.50;48.70;;;;;;4915439;28;46057;-61
2022/11/02 09:26:54;;;;;;;0.70;0.70;;;24.50;48.60;;;;;;4912196;28;45435;-61
2022/11/02 09:29:20;;;;;;;0.35;0.35;;;24.60;48.70;;;;;;4916812;28;44820;-62
2022/11/02 09:31:47;;;;;;;0.60;0.50;;;24.60;48.60;;;;;;4917406;28;44984;-62
2022/11/02 09:34:13;;;;;;;0.43;0.43;;;24.60;48.60;;;;;;4916148;28;45309;-62
2022/11/02 09:36:39;;;;;;;1.10;0.40;;;24.70;48.60;;;;;;4915312;28;45292;-63
2022/11/02 09:39:05;;;;;;;0.50;0.50;;;24.70;48.50;;;;;;4895448;28;44767;-62
2022/11/02 09:41:42;;;;;;;2.38;0.55;;;24.70;48.50;;;;;;4911845;28;44905;-62
2022/11/02 09:44:24;;;;;;;0.47;0.47;;;24.70;48.30;;;;;;4904239;28;45178;-61
2022/11/02 09:46:49;;;;;;;0.60;0.60;;;24.80;48.30;;;;;;4915053;28;45441;-62
2022/11/02 09:49:19;;;;;;;0.47;0.47;;;24.80;48.50;;;;;;4913640;28;45358;-62
2022/11/02 09:51:53;;;;;;;0.60;0.57;;;24.90;48.40;;;;;;4880486;28;45233;-62
2022/11/02 09:54:29;;;;;;;0.38;0.38;;;24.90;48.20;;;;;;4917316;28;45221;-62
2022/11/02 09:57:01;;;;;;;0.50;0.50;;;24.90;48.10;;;;;;4929785;28;45118;-62
2022/11/02 09:59:27;;;;;;;0.50;0.50;;;25.00;48.10;;;;;;4896879;28;45272;-62
2022/11/02 10:01:54;;;;;;;0.50;0.50;;;25.00;48.20;;;;;;4895716;28;45710;-61
2022/11/02 10:04:31;;;;;;;0.40;0.40;;;25.00;48.20;;;;;;4918925;28;45489;-61
2022/11/02 10:07:15;;;;;;;0.30;0.30;;;25.10;47.80;;;;;;4909656;28;44788;-61
2022/11/02 10:10:00;;;;;;;0.50;0.50;;;25.10;47.90;;;;;;4914466;28;45698;-61
2022/11/02 10:12:56;;;;;;;0.60;0.40;;;25.20;47.60;;;;;;4896435;28;45282;-62
2022/11/02 10:15:44;;;;;;;0.50;0.50;;;25.20;47.70;;;;;;4912670;28;45955;-62
2022/11/02 10:18:13;;;;;;;0.40;0.40;;;25.20;48.00;;;;;;4898788;28;45145;-62
2022/11/02 10:20:49;;;;;;;1.65;0.70;;;25.20;47.90;;;;;;4910953;28;45290;-61
2022/11/02 10:23:23;;;;;;;1.30;0.50;;;25.20;47.70;;;;;;4898025;28;45423;-62
2022/11/02 10:25:49;;;;;;;0.90;0.60;;;25.30;47.80;;;;;;4910087;28;44928;-61
2022/11/02 10:28:18;;;;;;;0.40;0.40;;;25.30;47.90;;;;;;4881733;28;45309;-61
2022/11/02 10:30:43;;;;;;;0.68;0.47;;;25.30;47.80;;;;;;4907447;28;45617;-63
2022/11/02 10:33:13;;;;;;;0.50;0.50;;;25.30;47.90;;;;;;4914753;28;45192;-62
2022/11/02 10:36:01;;;;;;;0.73;0.45;;;25.40;47.80;;;;;;4908243;28;45299;-61
2022/11/02 10:38:48;;;;;;;0.60;0.50;;;25.40;47.40;;;;;;4912984;28;45462;-61
2022/11/02 10:41:24;;;;;;;0.73;0.50;;;25.40;47.60;;;;;;4911053;28;45293;-61
2022/11/02 10:44:16;;;;;;;2.17;0.45;;;25.40;47.70;;;;;;4910123;28;45264;-61
2022/11/02 10:47:00;;;;;;;0.63;0.50;;;25.50;47.70;;;;;;4926381;28;45298;-62
2022/11/02 10:49:29;;;;;;;0.40;0.40;;;25.50;47.40;;;;;;4914776;28;45345;-62
2022/11/02 10:51:54;;;;;;;0.50;0.50;;;25.50;47.70;;;;;;4926882;28;45403;-62
2022/11/02 10:54:20;;;;;;;1.25;0.50;;;25.50;47.70;;;;;;4909803;28;44992;-62
2022/11/02 10:56:46;;;;;;;0.47;0.47;;;25.50;47.70;;;;;;4912427;28;45550;-61
2022/11/02 10:59:15;;;;;;;0.70;0.68;;;25.50;47.70;;;;;;4922648;28;44754;-61
2022/11/02 11:02:05;;;;;;;0.47;0.40;;;25.50;47.60;;;;;;4927706;28;45407;-60
2022/11/02 11:04:31;;;;;;;0.50;0.50;;;25.50;47.20;;;;;;4921488;28;45388;-61
2022/11/02 11:07:02;;;;;;;0.68;0.47;;;25.40;48.30;;;;;;4909518;28;45471;-61
2022/11/02 11:09:32;;;;;;;0.43;0.43;;;25.40;47.80;;;;;;4896749;28;45561;-60
2022/11/02 11:11:59;;;;;;;0.52;0.40;;;25.30;47.90;;;;;;4906493;28;45604;-61
2022/11/02 11:14:25;;;;;;;0.68;0.40;;;25.20;48.00;;;;;;4917336;28;45341;-60
2022/11/02 11:16:58;;;;;;;4.45;0.60;;;25.10;48.10;;;;;;4924691;28;46780;-61
2022/11/02 11:19:23;;;;;;;;;;;25.10;48.00;;;;;;4897494;28;44811;-62
2022/11/02 11:21:49;;;;;;;0.40;0.38;;;25.00;47.90;;;;;;4914589;28;45288;-61
2022/11/02 11:24:19;;;;;;;0.50;0.40;;;24.90;48.40;;;;;;4895824;28;45194;-61
2022/11/02 11:26:44;;;;;;;1.73;0.40;;;24.90;48.40;;;;;;4927400;28;45329;-62
2022/11/02 11:29:20;;;;;;;1.05;0.60;;;24.80;48.40;;;;;;4928825;28;45426;-61
2022/11/02 11:31:46;;;;;;;0.98;0.63;;;24.80;48.30;;;;;;4907216;28;45338;-61
2022/11/02 11:34:25;;;;;;;1.05;0.45;;;24.80;48.50;;;;;;4897979;28;45406;-61
2022/11/02 11:36:50;;;;;;;0.65;0.50;;;24.70;48.40;;;;;;4898383;28;45310;-62
2022/11/02 11:39:27;;;;;;;0.40;0.30;;;24.70;48.60;;;;;;4911232;28;45401;-61
2022/11/02 11:41:52;;;;;;;0.50;0.50;;;24.60;48.60;;;;;;4910840;28;45533;-61
2022/11/02 11:44:18;;;;;;;1.10;0.60;;;24.60;48.70;;;;;;4912874;28;45500;-61
2022/11/02 11:47:03;;;;;;;0.30;0.30;;;24.60;48.70;;;;;;4906169;28;45410;-61
2022/11/02 11:49:31;;;;;;;0.63;0.50;;;24.50;48.60;;;;;;4913123;28;44677;-61
2022/11/02 11:51:56;;;;;;;0.40;0.40;;;24.40;48.90;;;;;;4929702;28;45123;-60
2022/11/02 11:54:28;;;;;;;0.50;0.40;;;24.40;48.90;;;;;;4893968;28;45129;-61
2022/11/02 11:56:58;;;;;;;0.40;0.40;;;24.40;48.90;;;;;;4915877;28;45359;-61
2022/11/02 11:59:30;;;;;;;0.40;0.40;;;24.30;49.00;;;;;;4907572;28;45317;-61
2022/11/02 12:02:00;;;;;;;0.40;0.40;;;24.30;49.10;;;;;;4911135;28;44938;-60
2022/11/02 12:04:33;;;;;;;0.50;0.47;;;24.30;49.00;;;;;;4914106;28;45799;-62
2022/11/02 12:07:05;;;;;;;0.88;0.50;;;24.20;49.10;;;;;;4915852;28;45326;-61
2022/11/02 12:09:34;;;;;;;0.50;0.50;;;24.20;49.20;;;;;;4914594;28;45175;-62
2022/11/02 12:12:19;;;;;;;2.25;0.68;;;24.10;49.20;;;;;;4913921;28;45763;-61
2022/11/02 12:15:10;;;;;;;0.60;0.50;;;24.10;49.10;;;;;;4917556;28;44932;-62
2022/11/02 12:17:40;;;;;;;0.50;0.40;;;24.10;49.20;;;;;;4929549;28;45536;-62
2022/11/02 12:20:13;;;;;;;0.50;0.40;;;24.10;49.30;;;;;;4912368;28;44674;-62
2022/11/02 12:23:14;;;;;;;2.75;0.60;;;24.10;49.30;;;;;;4910520;28;45700;-61
2022/11/02 12:26:04;;;;;;;0.47;0.47;;;24.10;49.30;;;;;;4911775;28;45084;-61
2022/11/02 12:28:30;;;;;;;0.65;0.45;;;24.00;49.30;;;;;;4896443;28;46764;-61
2022/11/02 12:31:32;;;;;;;1.63;0.52;;;24.00;49.40;;;;;;4911354;28;45422;-63
2022/11/02 12:34:06;;;;;;;0.47;0.40;;;24.00;49.40;;;;;;4912969;28;45566;-62
2022/11/02 12:36:53;;;;;;;0.47;0.47;;;23.90;49.50;;;;;;4914480;28;45350;-62
2022/11/02 12:39:55;;;;;;;0.55;0.50;;;23.90;49.50;;;;;;4910831;28;45316;-62
2022/11/02 12:42:27;;;;;;;0.95;0.50;;;23.90;49.60;;;;;;4840809;29;45157;-62
2022/11/02 12:44:59;;;;;;;0.57;0.47;;;23.80;49.50;;;;;;4910084;28;46351;-62
2022/11/02 12:47:30;;;;;;;0.77;0.40;;;23.80;49.60;;;;;;4903397;28;45249;-62
2022/11/02 12:50:07;;;;;;;0.52;0.52;;;23.80;49.60;;;;;;4918425;28;45633;-61
2022/11/02 12:52:54;;;;;;;0.40;0.40;;;23.80;49.70;;;;;;4915279;28;45197;-61
2022/11/02 12:55:22;;;;;;;0.63;0.40;;;23.80;49.70;;;;;;4910953;28;44786;-60
2022/11/02 12:57:48;;;;;;;0.55;0.50;;;23.70;49.80;;;;;;4915662;28;45618;-60
2022/11/02 13:00:20;;;;;;;1.23;0.70;;;23.70;49.80;;;;;;4914449;28;47532;-61
2022/11/02 13:03:03;;;;;;;0.60;0.40;;;23.70;49.80;;;;;;4931275;28;45488;-62
2022/11/02 13:05:39;;;;;;;0.55;0.50;;;23.70;49.80;;;;;;4916156;28;45375;-62
2022/11/02 13:08:29;;;;;;;1.00;0.50;;;23.70;49.90;;;;;;4915041;28;45425;-62
2022/11/02 13:11:06;;;;;;;0.63;0.40;;;23.60;49.80;;;;;;4915170;28;45464;-62
2022/11/02 13:13:35;;;;;;;0.50;0.40;;;23.60;49.90;;;;;;4900544;28;44626;-62
2022/11/02 13:16:01;;;;;;;0.70;0.70;;;23.60;49.90;;;;;;4914773;28;45511;-61
2022/11/02 13:18:33;;;;;;;0.98;0.45;;;23.60;50.00;;;;;;4918055;28;45254;-61
2022/11/02 13:21:01;;;;;;;0.55;0.32;;;23.60;50.00;;;;;;4900862;28;45624;-61
2022/11/02 13:23:32;;;;;;;0.50;0.50;;;23.60;50.00;;;;;;4901938;28;45203;-62
2022/11/02 13:26:00;;;;;;;0.60;0.40;;;23.50;50.00;;;;;;4917704;28;45320;-62
2022/11/02 13:28:49;;;;;;;0.50;0.50;;;23.50;50.00;;;;;;4916820;28;45435;-61
2022/11/02 13:31:41;;;;;;;2.55;0.75;;;23.50;50.00;;;;;;4930137;28;46391;-62
2022/11/02 13:34:13;;;;;;;0.75;0.60;;;23.50;50.10;;;;;;4906347;28;44781;-61
2022/11/02 13:36:39;;;;;;;0.60;0.50;;;23.50;50.20;;;;;;4927598;28;45255;-61
2022/11/02 13:39:25;;;;;;;1.33;0.50;;;23.40;50.10;;;;;;4913272;28;45528;-62
2022/11/02 13:42:01;;;;;;;0.40;0.40;;;23.40;50.10;;;;;;4900703;28;45419;-61
2022/11/02 13:44:52;;;;;;;1.73;0.50;;;23.40;50.20;;;;;;4930048;28;45257;-61
2022/11/02 13:47:25;;;;;;;0.45;0.45;;;23.40;50.30;;;;;;4914176;28;44952;-61
2022/11/02 13:49:51;;;;;;;3.25;0.43;;;23.40;50.30;;;;;;4916513;28;44841;-62
2022/11/02 13:52:44;;;;;;;0.82;0.60;;;23.30;50.30;;;;;;4899471;28;46205;-62
2022/11/02 13:55:19;;;;;;;0.67;0.60;;;23.30;50.40;;;;;;4898247;28;44973;-62
2022/11/02 13:57:57;;;;;;;0.90;0.63;;;23.30;50.30;;;;;;4912607;28;45115;-62
2022/11/02 14:00:23;;;;;;;0.65;0.43;;;23.30;50.40;;;;;;4898072;28;45340;-62
2022/11/02 14:03:15;;;;;;;1.13;0.63;;;23.30;50.40;;;;;;4917975;28;46043;-61
2022/11/02 14:06:03;;;;;;;0.55;0.40;;;23.30;50.40;;;;;;4916709;28;45801;-60
2022/11/02 14:08:36;;;;;;;0.40;0.40;;;23.30;50.50;;;;;;4917951;28;45481;-61
2022/11/02 14:11:03;;;;;;;;;;;23.30;50.50;;;;;;4899625;28;45189;-62
2022/11/02 14:13:54;;;;;;;0.60;0.47;;;23.30;50.50;;;;;;4916288;28;45939;-61
2022/11/02 14:16:43;;;;;;;0.85;0.40;;;23.20;50.40;;;;;;4913738;28;44914;-62
2022/11/02 14:19:17;;;;;;;0.93;0.40;;;23.20;50.50;;;;;;4914237;28;46331;-61
2022/11/02 14:21:44;;;;;;;0.50;0.47;;;23.20;50.40;;;;;;4916898;28;45063;-64
2022/11/02 14:24:32;;;;;;;1.17;0.60;;;23.20;51.10;;;;;;4912693;28;46537;-61
2022/11/02 14:27:18;;;;;;;0.73;0.50;;;23.20;50.50;;;;;;4913343;28;45934;-61
2022/11/02 14:29:44;;;;;;;0.90;0.65;;;23.20;50.60;;;;;;4903859;28;45188;-61
2022/11/02 14:32:36;;;;;;;0.70;0.70;;;23.20;50.60;;;;;;4915202;28;45269;-62
2022/11/02 14:35:36;;;;;;;0.70;0.50;;;23.10;50.60;;;;;;4915741;28;45346;-62
2022/11/02 14:38:14;;;;;;;0.40;0.30;;;23.10;50.70;;;;;;4901976;28;45238;-61
2022/11/02 14:40:49;;;;;;;0.93;0.50;;;23.10;50.70;;;;;;4909254;28;45679;-61
2022/11/02 14:43:33;;;;;;;1.10;0.43;;;23.10;50.80;;;;;;4917437;28;45119;-60
2022/11/02 14:46:26;;;;;;;0.68;0.50;;;23.10;50.80;;;;;;4913904;28;46119;-63
2022/11/02 14:48:55;;;;;;;0.80;0.45;;;23.10;50.80;;;;;;4908813;28;45506;-63
2022/11/02 14:51:35;;;;;;;0.55;0.45;;;23.10;50.80;;;;;;4914839;28;45274;-63
2022/11/02 14:54:03;;;;;;;1.15;0.40;;;23.10;50.80;;;;;;4916508;28;45356;-60
2022/11/02 14:56:47;;;;;;;5.07;0.50;;;23.10;50.80;;;;;;4908981;28;46132;-60
2022/11/02 14:59:20;;;;;;;0.30;0.30;;;23.10;50.90;;;;;;4898390;28;45382;-60
2022/11/02 15:02:03;;;;;;;0.55;0.40;;;23.10;50.90;;;;;;4897194;28;44691;-60
2022/11/02 15:04:29;;;;;;;;;;;23.10;50.90;;;;;;4900845;28;45284;-61
2022/11/02 15:06:56;;;;;;;0.95;0.40;;;23.00;51.00;;;;;;4915967;28;45270;-61
2022/11/02 15:09:59;;;;;;;0.57;0.50;;;23.00;50.90;;;;;;4899242;28;44975;-61
2022/11/02 15:12:34;;;;;;;0.50;0.50;;;23.00;51.00;;;;;;4923718;28;45205;-62
2022/11/02 15:15:04;;;;;;;0.73;0.50;;;23.00;51.00;;;;;;4906876;28;44794;-62
2022/11/02 15:17:30;;;;;;;1.98;0.65;;;23.00;51.00;;;;;;4916803;28;45489;-62
2022/11/02 15:19:58;;;;;;;0.57;0.43;;;22.90;51.10;;;;;;4917065;28;45169;-62
2022/11/02 15:22:38;;;;;;;2.13;0.60;;;22.90;51.10;;;;;;4920619;28;45483;-62
2022/11/02 15:25:07;;;;;;;0.70;0.63;;;22.90;51.10;;;;;;4913718;28;45268;-62
2022/11/02 15:27:35;;;;;;;0.40;0.40;;;22.90;51.10;;;;;;4913853;28;45440;-62
2022/11/02 15:30:04;;;;;;;0.60;0.40;;;22.90;51.20;;;;;;4900025;28;45384;-62
2022/11/02 15:32:29;;;;;;;1.52;0.50;;;22.90;51.20;;;;;;4901697;28;45432;-62
2022/11/02 15:34:55;;;;;;;0.73;0.70;;;22.90;51.30;;;;;;4899085;28;45337;-62
2022/11/02 15:37:27;;;;;;;0.52;0.50;;;22.80;51.20;;;;;;4915148;28;45792;-62
2022/11/02 15:39:55;;;;;;;0.77;0.40;;;22.80;51.30;;;;;;4914585;28;46030;-62
2022/11/02 15:42:25;;;;;;;1.23;0.35;;;22.80;51.30;;;;;;4898499;28;45365;-61
2022/11/02 15:44:54;;;;;;;0.57;0.47;;;22.80;51.30;;;;;;4909888;28;45173;-61
2022/11/02 15:47:49;;;;;;;0.50;0.38;;;22.80;51.30;;;;;;4916453;28;45432;-61
2022/11/02 15:50:43;;;;;;;0.40;0.30;;;22.80;51.40;;;;;;4928398;28;45295;-61
2022/11/02 15:53:27;;;;;;;;;;;22.70;51.40;;;;;;4916548;28;44654;-62
2022/11/02 15:56:01;;;;;;;1.38;0.35;;;22.70;51.60;;;;;;4913399;28;45563;-62
2022/11/02 15:58:33;;;;;;;0.40;0.40;;;22.70;51.50;;;;;;4916886;28;46008;-62
2022/11/02 16:01:19;;;;;;;0.50;0.50;;;22.70;51.50;;;;;;4914976;28;45277;-62
2022/11/02 16:03:50;;;;;;;0.50;0.40;;;22.70;51.50;;;;;;4909099;28;45342;-61
2022/11/02 16:06:23;;;;;;;1.10;0.40;;;22.70;51.50;;;;;;4914462;28;45388;-60
2022/11/02 16:08:49;;;;;;;0.50;0.50;;;22.70;51.60;;;;;;4915576;28;46508;-60
2022/11/02 16:11:18;;;;;;;2.47;0.50;;;22.70;51.60;;;;;;4915154;28;45611;-61
2022/11/02 16:13:44;;;;;;;0.50;0.50;;;22.70;51.60;;;;;;4911423;28;45419;-61
2022/11/02 16:16:13;;;;;;;0.90;0.40;;;22.60;51.60;;;;;;4912995;28;45385;-61
2022/11/02 16:18:39;;;;;;;0.40;0.40;;;22.60;51.60;;;;;;4909796;28;46036;-61
2022/11/02 16:21:06;;;;;;;2.22;0.40;;;22.60;51.70;;;;;;4899379;28;44689;-61
2022/11/02 16:23:33;;;;;;;0.40;0.40;;;22.60;51.70;;;;;;4915841;28;45524;-61
2022/11/02 16:25:59;;;;;;;0.50;0.50;;;22.50;51.80;;;;;;4883545;28;45988;-61
2022/11/02 16:28:27;;;;;;;0.55;0.52;;;22.50;51.80;;;;;;4902841;28;46729;-61
2022/11/02 16:31:11;;;;;;;0.50;0.50;;;22.50;51.90;;;;;;4892915;28;45640;-61
2022/11/02 16:33:43;;;;;;;0.50;0.30;;;22.50;51.90;;;;;;4908499;28;44957;-62
2022/11/02 16:36:10;;;;;;;0.40;0.40;;;22.40;51.90;;;;;;4909409;28;45245;-61
2022/11/02 16:38:36;;;;;;;0.70;0.45;;;22.40;51.90;;;;;;4910384;28;46226;-61
2022/11/02 16:41:02;;;;;;;3.03;0.60;;;22.40;51.90;;;;;;4894653;28;45654;-61
2022/11/02 16:43:28;;;;;;;0.52;0.50;;;22.40;51.90;;;;;;4910459;28;45480;-62
2022/11/02 16:45:58;;;;;;;0.60;0.50;;;22.40;52.00;;;;;;4910749;28;45115;-62
2022/11/02 16:48:31;;;;;;;1.73;0.50;;;22.30;52.00;;;;;;4909968;28;45594;-62
2022/11/02 16:51:13;;;;;;;;;;;22.30;52.00;;;;;;4925703;28;45290;-62
2022/11/02 16:53:39;;;;;;;0.80;0.30;;;22.30;52.20;;;;;;4911619;28;45327;-62
2022/11/02 16:56:15;;;;;;;0.60;0.40;;;22.30;52.10;;;;;;4923349;28;45026;-62
2022/11/02 16:58:47;;;;;;;0.43;0.40;;;22.30;52.10;;;;;;4896631;28;45264;-62
2022/11/02 17:01:21;;;;;;;0.30;0.30;;;22.20;52.10;;;;;;4899620;28;45270;-62
2022/11/02 17:03:46;;;;;;;0.52;0.52;;;22.20;52.10;;;;;;4899198;28;45205;-62
2022/11/02 17:06:12;;;;;;;1.10;0.60;;;22.20;52.10;;;;;;4913517;28;45145;-62
2022/11/02 17:08:38;;;;;;;0.40;0.38;;;22.20;52.10;;;;;;4899801;28;45585;-61
2022/11/02 17:11:05;;;;;;;0.65;0.30;;;22.20;52.20;;;;;;4912516;28;45198;-61
2022/11/02 17:13:32;;;;;;;0.50;0.43;;;22.20;52.20;;;;;;4898426;28;44728;-62
2022/11/02 17:16:24;;;;;;;2.70;0.57;;;22.20;52.20;;;;;;4914710;28;45190;-61
2022/11/02 17:18:49;;;;;;;0.30;0.30;;;22.10;52.20;;;;;;4911754;28;45606;-62
2022/11/02 17:21:22;;;;;;;0.50;0.40;;;22.10;52.20;;;;;;4901163;28;45749;-61